Terminal Aerodrome Forecast
Issued by NWS

Home | Current Version | Previous Version | Text Only | Print | Product List | Glossary On
Versions: 1 2 3 4 5 6 7 8 9 10 11 12 13 14 15 16 17 18 19 20 21 22 23
312
FTUS45 KPIH 191227 AAA
TAFSUN
TAF AMD
KSUN 191227Z 1912/2012 15006KT 6SM -SHRASN SCT007 BKN013 OVC025
      TEMPO 1912/1914 4SM BR OVC004
     FM191700 15006KT P6SM VCSH SCT015 BKN035
     FM192100 19007KT P6SM -SHRASN SCT020 OVC040
     FM200000 30005KT 6SM -RASN SCT015 OVC025
      TEMPO 2004/2008 2SM -SN BR SCT008 OVC013
      AMD LTD TO CLD VIS AND WIND TIL 191400=

USA.gov is the U.S. government's official web portal to all federal, state and local government web resources and services.